Ellettsville, Indiana
Current Conditions -  °F | °C
As of 8:53 AM on Friday 31 Oct 2014 (Local Time) from KBMG Reporting Station
Light Rain Light Rain  
Wind Chill: 41°   Ceiling: 6000
Heat Index: 44°   Visibility: 8mi
Dew Point: 40°   Wind: 6mph
Humidity: 85%   Direction: 310°NW
Pressure: 30.01"   Gusts: NA
Location:  39.23°N, 86.63°W
Report Text: KBMG 311253Z 31005KT 8SM -RA SCT046 OVC060 07/04 A3001 RMK AO2 RAB50 SLP164 P0000 T00670044
Loading
Personal Weather Stations






























Interactive Weather Map
Tropical Storm Tracking
New forecast layout! Learn more

10-Day Weather Forecast

Advertisements
Track Severe Weather on mobile